Time;durP1;ratioP1;P1;durP2;ratioP2;P2;SDS_P1;SDS_P2;PMS_P1;PMS_P2;Temp;Humidity;BMP_temperature;BMP_pressure;BME280_temperature;BME280_humidity;BME280_pressure;Samples;Min_cycle;Max_cycle;Signal;HPM_P1;HPM_P2
2022/11/11 00:00:11;;;;;;;13.85;9.35;;;;;;;8.46;96.61;102813.69;5048062;28;20491;-46
2022/11/11 00:02:36;;;;;;;16.73;9.57;;;;;;;8.48;96.68;102807.44;5050609;28;20033;-47
2022/11/11 00:05:01;;;;;;;16.35;11.20;;;;;;;8.50;96.86;102813.53;5049677;28;20482;-46
2022/11/11 00:07:26;;;;;;;18.77;11.02;;;;;;;8.51;97.37;102811.75;5042396;28;20025;-45
2022/11/11 00:09:52;;;;;;;17.10;11.15;;;;;;;8.54;97.21;102818.72;5059538;28;20052;-48
2022/11/11 00:12:17;;;;;;;16.88;11.38;;;;;;;8.54;97.11;102814.28;5040831;28;20048;-47
2022/11/11 00:14:42;;;;;;;17.63;11.52;;;;;;;8.58;97.30;102812.41;5048387;28;20082;-46
2022/11/11 00:25:23;;;;;;;18.35;12.45;;;;;;;8.64;97.17;102807.75;5051266;28;20438;-48
2022/11/11 00:27:49;;;;;;;22.27;12.02;;;;;;;8.66;97.56;102807.66;5048121;28;20017;-48
2022/11/11 00:30:14;;;;;;;16.58;11.93;;;;;;;8.67;97.57;102806.75;5050844;28;20036;-46
2022/11/11 00:32:39;;;;;;;16.67;11.82;;;;;;;8.68;97.69;102819.09;5046698;28;20497;-47
2022/11/11 00:37:49;;;;;;;19.85;12.73;;;;;;;8.70;97.50;102823.41;5049915;28;20124;-47
2022/11/11 00:40:14;;;;;;;17.50;12.35;;;;;;;8.74;97.44;102823.28;5045148;28;20227;-45
2022/11/11 00:42:40;;;;;;;18.35;12.23;;;;;;;8.74;97.81;102821.50;5038366;28;20055;-45
2022/11/11 00:45:06;;;;;;;16.23;12.10;;;;;;;8.75;97.70;102820.59;5042045;28;20033;-45
2022/11/11 00:53:04;;;;;;;18.73;12.73;;;;;;;8.81;97.53;102833.59;5045166;28;20096;-45
2022/11/11 00:55:30;;;;;;;18.65;12.68;;;;;;;8.83;97.70;102831.75;5053946;28;20021;-45
2022/11/11 00:57:55;;;;;;;17.65;12.90;;;;;;;8.83;97.61;102834.41;5045595;28;20033;-46
2022/11/11 01:00:20;;;;;;;20.85;12.63;;;;;;;8.86;97.64;102833.44;5053262;28;20398;-47
2022/11/11 01:02:45;;;;;;;19.80;13.50;;;;;;;8.87;97.73;102830.72;5045556;28;20025;-44
2022/11/11 01:05:11;;;;;;;18.10;13.63;;;;;;;8.86;97.63;102836.94;5050355;28;20048;-46
2022/11/11 01:07:36;;;;;;;17.67;12.40;;;;;;;8.88;97.60;102842.19;5053953;28;20390;-45
2022/11/11 01:10:02;;;;;;;17.95;12.60;;;;;;;8.87;97.76;102840.44;5050554;28;20063;-47
2022/11/11 01:12:27;;;;;;;18.63;12.48;;;;;;;8.90;97.52;102848.28;5053886;28;20120;-45
2022/11/11 01:14:52;;;;;;;18.98;13.30;;;;;;;8.92;97.55;102854.41;5053870;28;20021;-46
2022/11/11 01:17:18;;;;;;;21.98;13.80;;;;;;;8.93;97.64;102852.63;5052531;28;20083;-46
2022/11/11 01:19:43;;;;;;;17.60;12.98;;;;;;;8.93;97.60;102853.47;5054111;28;20029;-45
2022/11/11 01:22:08;;;;;;;19.02;14.13;;;;;;;8.94;97.61;102846.38;5051587;28;20033;-45
2022/11/11 01:24:36;;;;;;;18.38;13.77;;;;;;;8.94;97.62;102849.88;5053940;28;20025;-46
2022/11/11 01:27:02;;;;;;;19.25;13.68;;;;;;;8.95;97.54;102848.97;5053771;28;20039;-45
2022/11/11 01:29:27;;;;;;;22.48;13.98;;;;;;;8.96;97.56;102848.06;5050295;28;20025;-46
2022/11/11 01:31:52;;;;;;;19.40;13.55;;;;;;;8.97;97.61;102854.22;5056182;28;20151;-45
2022/11/11 01:34:17;;;;;;;18.70;12.82;;;;;;;8.98;97.31;102842.72;5044610;28;20491;-45
2022/11/11 01:36:43;;;;;;;19.67;13.50;;;;;;;8.98;97.60;102845.38;5053578;28;20180;-45
2022/11/11 01:39:08;;;;;;;18.63;13.75;;;;;;;8.99;97.63;102852.38;5053317;28;20068;-45
2022/11/11 01:41:38;;;;;;;19.48;13.18;;;;;;;8.98;97.63;102840.91;5042065;28;20055;-45
2022/11/11 01:44:12;;;;;;;21.02;13.52;;;;;;;9.00;97.69;102847.03;5037757;28;20080;-45
2022/11/11 01:46:43;;;;;;;18.50;14.02;;;;;;;9.01;97.48;102846.09;5046319;28;20041;-46
2022/11/11 01:49:46;;;;;;;19.63;13.95;;;;;;;9.03;97.53;102838.09;5041057;28;20033;-47
2022/11/11 01:52:30;;;;;;;23.65;13.88;;;;;;;9.01;97.36;102827.56;5033223;28;20046;-47
2022/11/11 01:55:02;;;;;;;19.15;13.27;;;;;;;9.00;97.65;102828.47;5049592;28;20031;-46
2022/11/11 01:57:35;;;;;;;14.95;12.52;;;;;;;9.01;97.73;102829.31;5053250;28;20076;-45
2022/11/11 02:00:06;;;;;;;17.65;13.10;;;;;;;8.99;97.86;102828.53;5054269;28;20021;-46
2022/11/11 02:02:37;;;;;;;18.85;12.77;;;;;;;8.99;97.83;102833.81;5041804;28;20017;-45
2022/11/11 02:07:49;;;;;;;22.58;15.05;;;;;;;8.99;97.87;102832.06;5040029;28;20076;-46
2022/11/11 02:10:20;;;;;;;22.23;14.77;;;;;;;8.99;97.73;102831.19;5051410;28;20048;-46
2022/11/11 02:15:30;;;;;;;21.48;14.20;;;;;;;9.00;97.58;102827.63;5053204;28;20032;-44
2022/11/11 02:17:55;;;;;;;22.25;14.05;;;;;;;8.98;97.80;102825.03;5043717;28;20022;-46
2022/11/11 02:20:27;;;;;;;21.58;14.60;;;;;;;8.98;97.75;102825.03;5047435;28;20151;-46
2022/11/11 02:23:02;;;;;;;21.08;13.90;;;;;;;8.99;97.59;102825.88;5047292;28;20037;-44
2022/11/11 02:25:30;;;;;;;21.23;14.27;;;;;;;8.97;97.63;102822.44;5049637;28;20040;-46
2022/11/11 02:28:00;;;;;;;19.92;13.35;;;;;;;8.98;97.69;102814.41;5053381;28;20439;-45
2022/11/11 02:30:26;;;;;;;25.00;14.30;;;;;;;8.98;97.54;102803.81;5053805;28;20566;-45
2022/11/11 02:32:53;;;;;;;25.33;14.75;;;;;;;8.95;97.44;102801.28;5051676;28;20020;-44
2022/11/11 02:35:21;;;;;;;21.48;14.10;;;;;;;8.96;97.42;102796.84;5053604;28;20508;-45
2022/11/11 02:37:52;;;;;;;20.25;13.35;;;;;;;8.97;97.61;102795.91;5052391;28;20028;-46
2022/11/11 02:40:32;;;;;;;20.98;13.88;;;;;;;8.95;97.58;102798.63;5053908;28;20029;-44
2022/11/11 02:42:57;;;;;;;22.98;13.25;;;;;;;8.93;97.43;102808.44;5054050;28;20037;-46
2022/11/11 02:45:23;;;;;;;19.67;12.77;;;;;;;8.92;97.64;102798.75;5042942;28;20033;-45
2022/11/11 02:47:49;;;;;;;21.10;12.77;;;;;;;8.90;97.56;102805.91;5053936;28;20108;-46
2022/11/11 02:50:14;;;;;;;19.30;12.60;;;;;;;8.91;97.52;102798.78;5050887;28;20089;-47
2022/11/11 02:52:39;;;;;;;19.23;12.20;;;;;;;8.89;97.53;102806.81;5042112;28;20448;-46
2022/11/11 02:55:06;;;;;;;20.00;12.57;;;;;;;8.87;97.65;102801.56;5051876;28;20534;-47
2022/11/11 02:57:31;;;;;;;18.10;11.77;;;;;;;8.85;97.46;102803.41;5046850;28;20135;-46
2022/11/11 02:59:59;;;;;;;16.42;12.75;;;;;;;8.84;97.52;102792.88;5053383;28;20029;-45
2022/11/11 03:02:26;;;;;;;19.05;12.63;;;;;;;8.84;97.68;102795.50;5053462;28;20055;-47
2022/11/11 03:04:52;;;;;;;17.50;12.52;;;;;;;8.83;97.65;102785.84;5052548;28;20167;-46
2022/11/11 03:07:17;;;;;;;16.85;11.63;;;;;;;8.84;97.57;102784.91;5053223;28;20048;-45
2022/11/11 03:09:42;;;;;;;16.52;11.90;;;;;;;8.84;97.46;102784.91;5053096;28;20028;-45
2022/11/11 03:12:08;;;;;;;17.02;11.73;;;;;;;8.83;97.68;102794.66;5053073;28;20076;-45
2022/11/11 03:14:33;;;;;;;17.75;11.88;;;;;;;8.82;97.81;102797.38;5051163;28;20033;-45
2022/11/11 03:19:42;;;;;;;18.40;11.77;;;;;;;8.79;97.86;102782.47;5050318;28;20056;-46
2022/11/11 03:22:07;;;;;;;17.27;11.80;;;;;;;8.77;98.10;102781.63;5046346;28;20478;-48
2022/11/11 03:27:16;;;;;;;18.52;11.45;;;;;;;8.76;98.08;102808.19;5049257;28;20040;-45
2022/11/11 03:29:41;;;;;;;17.17;11.02;;;;;;;8.76;97.85;102814.38;5048651;28;20025;-46
2022/11/11 03:32:07;;;;;;;17.65;11.68;;;;;;;8.77;97.87;102816.09;5048741;28;20722;-47
2022/11/11 03:34:33;;;;;;;19.30;12.32;;;;;;;8.78;97.98;102811.66;5052656;28;20398;-46
2022/11/11 03:39:42;;;;;;;16.63;11.13;;;;;;;8.74;98.05;102804.75;5052814;28;20559;-48
2022/11/11 03:42:07;;;;;;;15.38;11.80;;;;;;;8.76;97.97;102797.59;5052201;28;20032;-46
2022/11/11 03:44:32;;;;;;;15.63;11.73;;;;;;;8.76;97.91;102803.78;5052522;28;20025;-46
2022/11/11 03:46:58;;;;;;;15.80;11.10;;;;;;;8.76;97.81;102793.19;5050661;28;20021;-48
2022/11/11 03:49:23;;;;;;;19.95;11.52;;;;;;;8.75;97.85;102799.38;5052844;28;20119;-46
2022/11/11 03:51:48;;;;;;;17.88;11.98;;;;;;;8.76;97.83;102798.47;5047590;28;20473;-45
2022/11/11 03:54:13;;;;;;;17.85;12.02;;;;;;;8.71;98.23;102797.78;5043999;28;20163;-48
2022/11/11 03:56:39;;;;;;;19.80;12.52;;;;;;;8.72;98.13;102796.00;5049424;28;20021;-46
2022/11/11 03:59:04;;;;;;;17.38;11.70;;;;;;;8.68;97.97;102785.50;5052284;28;20162;-47
2022/11/11 04:12:27;;;;;;;17.13;11.68;;;;;;;8.62;98.39;102806.91;5051850;28;20056;-46
2022/11/11 04:17:37;;;;;;;16.90;11.38;;;;;;;8.59;98.34;102804.38;5041899;28;20512;-46
2022/11/11 04:22:57;;;;;;;18.73;11.38;;;;;;;8.56;98.51;102812.47;5045012;28;20048;-46
2022/11/11 04:30:49;;;;;;;18.13;13.23;;;;;;;8.50;98.64;102816.19;5050600;28;20048;-45
2022/11/11 04:33:15;;;;;;;18.92;13.00;;;;;;;8.49;98.66;102813.59;5050906;28;20033;-46
2022/11/11 04:35:40;;;;;;;25.48;14.18;;;;;;;8.48;98.68;102820.66;5053399;28;20025;-48
2022/11/11 04:41:03;;;;;;;18.45;12.68;;;;;;;8.48;98.75;102814.53;5050144;28;20094;-45
2022/11/11 04:45:26;;;;;;;19.10;12.18;;;;;;;8.46;98.88;102816.34;5051626;28;20162;-46
2022/11/11 04:46:16;;;;;;;22.27;12.85;;;;;;;8.45;98.90;102804.03;5046615;28;20040;-46
2022/11/11 04:48:42;;;;;;;19.42;12.93;;;;;;;8.45;98.63;102812.84;5051735;28;20044;-47
2022/11/11 04:51:07;;;;;;;15.68;12.40;;;;;;;8.45;98.64;102812.84;5051698;28;20078;-46
2022/11/11 04:53:32;;;;;;;18.33;12.88;;;;;;;8.45;98.53;102811.97;5038499;28;20052;-46
2022/11/11 04:58:41;;;;;;;17.42;12.63;;;;;;;8.44;98.52;102811.13;5042243;28;20040;-46
2022/11/11 05:01:07;;;;;;;18.55;12.45;;;;;;;8.43;98.59;102814.69;5040381;28;20029;-46
2022/11/11 05:03:32;;;;;;;15.93;11.82;;;;;;;8.42;98.50;102812.06;5051414;28;20467;-47
2022/11/11 05:09:00;;;;;;;17.08;11.98;;;;;;;8.39;98.48;102812.16;5042522;28;20490;-46
2022/11/11 05:11:28;;;;;;;18.67;12.90;;;;;;;8.33;98.63;102811.47;5051300;28;20052;-46
2022/11/11 05:22:33;;;;;;;16.17;12.20;;;;;;;8.28;98.80;102812.56;5047571;28;20203;-45
2022/11/11 05:27:43;;;;;;;18.83;12.10;;;;;;;8.23;98.88;102823.28;5051611;28;20071;-47
2022/11/11 05:30:11;;;;;;;16.95;12.32;;;;;;;8.22;98.42;102818.91;5051691;28;20108;-45
2022/11/11 05:32:37;;;;;;;16.65;12.27;;;;;;;8.22;98.43;102815.41;5048442;28;20033;-45
2022/11/11 05:35:03;;;;;;;14.15;11.32;;;;;;;8.20;98.74;102815.47;5049134;28;20113;-46
2022/11/11 05:37:28;;;;;;;18.33;11.70;;;;;;;8.19;98.56;102819.00;5054249;28;20108;-46
2022/11/11 05:39:53;;;;;;;16.98;12.10;;;;;;;8.18;98.63;102817.31;5049196;28;20036;-45
2022/11/11 05:42:19;;;;;;;15.07;11.52;;;;;;;8.19;98.47;102819.00;5054839;28;20029;-45
2022/11/11 05:44:44;;;;;;;17.63;11.77;;;;;;;8.19;98.18;102828.75;5054764;28;20105;-46
2022/11/11 05:47:09;;;;;;;18.48;11.40;;;;;;;8.18;98.21;102822.59;5044610;28;20036;-45
2022/11/11 05:49:35;;;;;;;15.02;12.27;;;;;;;8.17;98.03;102820.84;5054681;28;20397;-45
2022/11/11 05:52:00;;;;;;;16.63;12.40;;;;;;;8.12;97.82;102818.38;5046383;28;20041;-45
2022/11/11 05:54:26;;;;;;;16.45;12.45;;;;;;;8.11;97.86;102818.41;5047660;28;20024;-46
2022/11/11 05:56:51;;;;;;;17.33;13.15;;;;;;;8.06;98.03;102808.00;5042734;28;20039;-45
2022/11/11 05:59:17;;;;;;;15.05;12.30;;;;;;;8.02;98.00;102816.09;5054723;28;20029;-45
2022/11/11 06:01:43;;;;;;;18.30;13.40;;;;;;;7.97;97.84;102816.25;5054206;28;20111;-48
2022/11/11 06:04:08;;;;;;;17.70;13.27;;;;;;;7.94;98.19;102814.59;5051323;28;20024;-45
2022/11/11 06:06:34;;;;;;;18.05;12.88;;;;;;;7.90;98.29;102825.31;5054378;28;20075;-48
2022/11/11 06:09:00;;;;;;;17.88;13.10;;;;;;;7.87;98.64;102834.22;5051777;28;20021;-45
2022/11/11 06:11:26;;;;;;;16.25;13.48;;;;;;;7.84;98.55;102830.81;5043608;28;20485;-45
2022/11/11 06:13:52;;;;;;;18.05;12.82;;;;;;;7.82;98.72;102827.34;5055057;28;20370;-46
2022/11/11 06:16:17;;;;;;;18.45;12.30;;;;;;;7.81;98.98;102828.25;5053468;28;20031;-48
2022/11/11 06:18:43;;;;;;;16.83;12.95;;;;;;;7.81;98.83;102831.78;5047914;28;20478;-45
2022/11/11 06:21:08;;;;;;;16.08;12.15;;;;;;;7.79;98.88;102830.94;5054831;28;20048;-47
2022/11/11 06:23:33;;;;;;;18.00;13.63;;;;;;;7.76;99.01;102837.22;5054679;28;20104;-46
2022/11/11 06:26:14;;;;;;;18.02;13.27;;;;;;;7.73;98.90;102834.66;5043500;28;20028;-47
2022/11/11 06:29:01;;;;;;;18.70;13.45;;;;;;;7.74;99.05;102843.47;5054818;28;20071;-46
2022/11/11 06:31:26;;;;;;;17.33;12.85;;;;;;;7.70;98.89;102844.50;5049155;28;20025;-47
2022/11/11 06:33:52;;;;;;;17.17;13.20;;;;;;;7.67;98.84;102850.72;5053713;28;20537;-46
2022/11/11 06:36:19;;;;;;;16.60;12.57;;;;;;;7.66;98.96;102846.38;5052516;28;20425;-46
2022/11/11 06:38:45;;;;;;;15.85;12.02;;;;;;;7.64;98.84;102855.25;5051202;28;20029;-48
2022/11/11 06:41:14;;;;;;;17.60;12.32;;;;;;;7.59;98.39;102851.00;5054441;28;20078;-46
2022/11/11 06:43:40;;;;;;;;;;;;;;;7.64;97.97;102855.25;5044095;28;20028;-47
2022/11/11 06:46:05;;;;;;;17.00;13.18;;;;;;;7.52;98.33;102852.09;5054482;28;19913;-46
2022/11/11 06:48:31;;;;;;;16.75;12.40;;;;;;;7.50;98.34;102855.72;5051799;28;20114;-46
2022/11/11 06:51:02;;;;;;;16.42;13.68;;;;;;;7.48;98.22;102858.41;5054750;28;20108;-46
2022/11/11 06:53:28;;;;;;;18.40;13.55;;;;;;;7.44;98.15;102869.97;5052658;28;20029;-46
2022/11/11 06:55:54;;;;;;;17.98;13.02;;;;;;;7.40;97.91;102865.69;5055479;28;20493;-46
2022/11/11 06:58:20;;;;;;;15.27;13.45;;;;;;;7.37;97.95;102863.16;5054768;28;20104;-45
2022/11/11 07:00:46;;;;;;;20.10;13.02;;;;;;;7.36;98.07;102864.03;5055361;28;20119;-45
2022/11/11 07:03:14;;;;;;;15.63;13.15;;;;;;;7.34;98.16;102857.94;5045425;28;20049;-45
2022/11/11 07:05:40;;;;;;;16.35;12.93;;;;;;;7.31;98.21;102856.28;5053631;28;20037;-46
2022/11/11 07:08:09;;;;;;;19.92;12.85;;;;;;;7.26;98.28;102857.31;5047147;28;20049;-46
2022/11/11 07:10:35;;;;;;;;;;;;;;;7.31;97.59;102858.03;5046177;28;20041;-48
2022/11/11 07:13:01;;;;;;;18.35;12.38;;;;;;;7.25;98.08;102867.03;5047873;28;19919;-47
2022/11/11 07:15:26;;;;;;;16.00;12.80;;;;;;;7.25;98.22;102867.03;5053317;28;20029;-49
2022/11/11 07:17:51;;;;;;;19.40;12.48;;;;;;;7.22;98.36;102862.69;5052543;28;20037;-48
2022/11/11 07:20:17;;;;;;;16.33;12.07;;;;;;;7.20;98.46;102863.66;5045982;28;20032;-46
2022/11/11 07:22:42;;;;;;;17.48;12.15;;;;;;;7.20;98.51;102871.59;5047167;28;20087;-47
2022/11/11 07:25:07;;;;;;;18.67;12.27;;;;;;;7.18;98.73;102884.00;5034690;28;20032;-47
2022/11/11 07:27:37;;;;;;;15.57;11.75;;;;;;;7.17;99.04;102891.03;5039162;28;20032;-48
2022/11/11 07:30:04;;;;;;;21.17;12.25;;;;;;;7.17;98.62;102884.88;5044899;28;20045;-50
2022/11/11 07:32:29;;;;;;;17.40;11.73;;;;;;;7.18;98.83;102884.84;5040329;28;20029;-49
2022/11/11 07:34:54;;;;;;;18.15;11.63;;;;;;;7.17;99.00;102884.88;5038255;28;20367;-51
2022/11/11 07:37:20;;;;;;;15.80;11.40;;;;;;;7.16;98.77;102881.41;5037961;28;20025;-47
2022/11/11 07:39:45;;;;;;;16.33;12.00;;;;;;;7.16;98.81;102889.31;5034399;28;20045;-48
2022/11/11 07:42:10;;;;;;;17.38;12.70;;;;;;;7.18;99.08;102891.91;5035471;28;20028;-48
2022/11/11 07:44:36;;;;;;;16.83;12.07;;;;;;;7.18;98.88;102895.41;5035507;28;20041;-48
2022/11/11 07:47:01;;;;;;;18.13;12.73;;;;;;;7.19;99.33;102891.88;5040317;28;20040;-47
2022/11/11 07:49:26;;;;;;;19.63;12.23;;;;;;;7.18;99.12;102891.91;5040119;28;20048;-47
2022/11/11 07:51:52;;;;;;;17.83;11.88;;;;;;;7.19;99.20;102893.63;5038181;28;20502;-47
2022/11/11 07:54:17;;;;;;;15.30;12.23;;;;;;;7.21;99.15;102900.63;5034819;28;20048;-47
2022/11/11 07:56:42;;;;;;;20.77;12.73;;;;;;;7.25;98.99;102914.59;5032561;28;20067;-48
2022/11/11 07:59:07;;;;;;;15.38;12.02;;;;;;;7.27;98.79;102911.91;5037268;28;20074;-48
2022/11/11 08:01:32;;;;;;;19.05;12.35;;;;;;;7.29;98.93;102925.94;5038403;28;20025;-48
2022/11/11 08:03:58;;;;;;;18.25;12.38;;;;;;;7.31;98.82;102922.38;5043816;28;20438;-47
2022/11/11 08:06:23;;;;;;;22.08;13.45;;;;;;;7.33;98.76;102919.69;5047511;28;20028;-47
2022/11/11 08:08:48;;;;;;;21.05;12.93;;;;;;;7.35;98.70;102936.34;5039479;28;20053;-48
2022/11/11 08:11:15;;;;;;;16.08;12.38;;;;;;;7.38;98.52;102946.84;5041613;28;20544;-47
2022/11/11 08:13:43;;;;;;;17.63;12.85;;;;;;;7.40;98.17;102945.00;5033702;28;20103;-49
2022/11/11 08:16:13;;;;;;;20.23;13.45;;;;;;;7.43;98.25;102942.28;5035150;28;20017;-49
2022/11/11 08:18:42;;;;;;;17.38;12.88;;;;;;;7.44;98.37;102946.63;5033772;28;20116;-48
2022/11/11 08:21:07;;;;;;;17.03;12.50;;;;;;;7.46;98.19;102943.94;5037750;28;20021;-47
2022/11/11 08:23:33;;;;;;;16.10;12.80;;;;;;;7.48;98.15;102939.50;5038761;28;20525;-47
2022/11/11 08:26:04;;;;;;;21.48;13.27;;;;;;;7.49;98.07;102947.38;5042709;28;20123;-48
2022/11/11 08:28:32;;;;;;;20.88;13.77;;;;;;;7.53;97.75;102949.03;5045931;28;20044;-47
2022/11/11 08:30:58;;;;;;;18.40;13.00;;;;;;;7.55;97.86;102947.19;5045676;28;20032;-48
2022/11/11 08:33:25;;;;;;;16.98;12.45;;;;;;;7.57;97.72;102953.28;5050606;28;20032;-47
2022/11/11 08:35:53;;;;;;;16.50;12.55;;;;;;;7.57;97.66;102958.59;5050986;28;20293;-47
2022/11/11 08:38:18;;;;;;;16.80;12.15;;;;;;;7.62;97.46;102961.09;5051496;28;20021;-47
2022/11/11 08:40:45;;;;;;;15.50;12.57;;;;;;;7.67;97.70;102958.31;5035209;28;20038;-48
2022/11/11 08:43:11;;;;;;;16.35;13.13;;;;;;;7.70;97.66;102963.53;5032960;28;20380;-49
2022/11/11 08:45:36;;;;;;;14.98;12.10;;;;;;;7.74;97.46;102967.78;5043449;28;20036;-48
2022/11/11 08:48:01;;;;;;;16.35;11.60;;;;;;;7.79;97.47;102973.81;5051840;28;20474;-47
2022/11/11 08:50:26;;;;;;;17.00;12.48;;;;;;;7.84;96.93;102978.97;5051292;28;20442;-47
2022/11/11 08:52:52;;;;;;;16.17;12.00;;;;;;;7.88;96.96;102978.81;5037974;28;20080;-47
2022/11/11 08:55:18;;;;;;;15.13;11.75;;;;;;;7.93;96.85;102968.97;5051308;28;20029;-48
2022/11/11 08:57:44;;;;;;;15.20;11.80;;;;;;;7.99;96.49;102975.81;5045578;28;20471;-48
2022/11/11 09:00:11;;;;;;;16.23;11.45;;;;;;;8.04;95.90;102978.34;5050682;28;20037;-47
2022/11/11 09:02:37;;;;;;;14.23;10.60;;;;;;;8.08;95.92;102980.00;5051034;28;20033;-48
2022/11/11 09:05:03;;;;;;;12.50;10.05;;;;;;;8.14;95.87;102969.19;5053098;28;20043;-47
2022/11/11 09:07:29;;;;;;;14.93;11.00;;;;;;;8.23;95.52;102968.03;5049346;28;20083;-46
2022/11/11 09:09:54;;;;;;;14.25;10.38;;;;;;;8.27;95.40;102967.88;5051570;28;20029;-47
2022/11/11 09:12:19;;;;;;;13.30;9.90;;;;;;;8.36;95.03;102976.44;5046235;28;20308;-47
2022/11/11 09:14:44;;;;;;;11.68;10.35;;;;;;;8.42;94.80;102979.75;5049911;28;20060;-48
2022/11/11 09:17:10;;;;;;;11.75;9.85;;;;;;;8.46;94.16;102978.75;5054326;28;20029;-47
2022/11/11 09:19:35;;;;;;;12.68;10.05;;;;;;;8.51;93.84;102975.97;5053471;28;20700;-47
2022/11/11 09:22:00;;;;;;;12.70;9.95;;;;;;;8.57;93.39;102982.84;5053139;28;20121;-48
2022/11/11 09:24:26;;;;;;;12.48;9.43;;;;;;;8.59;93.17;102981.84;5054627;28;20021;-48
2022/11/11 09:26:51;;;;;;;13.80;9.35;;;;;;;8.66;93.49;102982.50;5054152;28;20026;-48
2022/11/11 09:29:17;;;;;;;12.80;9.30;;;;;;;8.69;93.20;102980.63;5055326;28;20028;-49
2022/11/11 09:31:42;;;;;;;13.07;9.43;;;;;;;8.78;92.95;102986.53;5047938;28;20484;-46
2022/11/11 09:34:08;;;;;;;13.38;9.65;;;;;;;8.82;92.61;102985.50;5054707;28;20363;-47
2022/11/11 09:36:33;;;;;;;12.07;9.38;;;;;;;8.88;92.01;102982.66;5055547;28;20021;-47
2022/11/11 09:38:59;;;;;;;12.70;9.55;;;;;;;8.93;91.74;102990.44;5042305;28;20112;-48
2022/11/11 09:41:45;;;;;;;16.27;10.40;;;;;;;8.99;91.80;102996.38;5049560;28;20029;-48
2022/11/11 09:44:48;;;;;;;10.88;9.15;;;;;;;9.08;92.04;102992.53;5042958;28;20033;-48
2022/11/11 09:47:30;;;;;;;10.93;9.63;;;;;;;9.19;91.30;102994.78;5042895;28;20033;-48
2022/11/11 09:50:08;;;;;;;13.07;9.50;;;;;;;9.23;90.68;102997.28;5048217;28;20025;-48
2022/11/11 09:52:48;;;;;;;13.32;9.60;;;;;;;9.33;90.48;102994.31;5040349;28;20083;-50
2022/11/11 09:55:21;;;;;;;11.70;9.55;;;;;;;9.41;90.16;103003.69;5045660;28;20037;-49
2022/11/11 09:57:50;;;;;;;11.85;9.32;;;;;;;9.50;90.08;102999.84;5041581;28;20482;-50
2022/11/11 10:00:20;;;;;;;13.10;9.00;;;;;;;9.58;89.61;102995.09;5038383;28;20028;-47
2022/11/11 10:02:53;;;;;;;13.40;9.15;;;;;;;9.68;88.82;102990.31;5049205;28;20021;-47
2022/11/11 10:05:30;;;;;;;11.60;9.35;;;;;;;9.74;88.76;102998.06;5052721;28;20028;-46
2022/11/11 10:08:13;;;;;;;11.43;8.48;;;;;;;9.80;88.31;103002.25;5053396;28;20125;-48
2022/11/11 10:10:43;;;;;;;11.90;8.20;;;;;;;9.82;87.52;102998.63;5050606;28;20095;-50
2022/11/11 10:13:14;;;;;;;9.82;8.32;;;;;;;9.92;87.59;103006.22;5054538;28;20021;-48
2022/11/11 10:15:56;;;;;;;9.93;7.63;;;;;;;10.02;87.67;103004.91;5052408;28;20021;-50
2022/11/11 10:18:49;;;;;;;10.48;7.32;;;;;;;10.11;87.43;102998.41;5053700;28;20025;-48
2022/11/11 10:21:19;;;;;;;11.15;8.20;;;;;;;10.21;86.82;103002.41;5053825;28;20056;-48
2022/11/11 10:23:47;;;;;;;10.68;8.20;;;;;;;10.27;86.33;103002.13;5054841;28;20025;-49
2022/11/11 10:26:26;;;;;;;9.48;7.13;;;;;;;10.36;85.72;102995.63;5054190;28;20060;-48
2022/11/11 10:28:52;;;;;;;9.35;7.45;;;;;;;10.46;85.99;103006.72;5044296;28;20033;-48
2022/11/11 10:31:21;;;;;;;9.73;7.28;;;;;;;10.49;84.19;102993.31;5053174;28;20029;-49
2022/11/11 10:33:54;;;;;;;9.98;7.47;;;;;;;10.58;84.41;103003.56;5053091;28;20159;-48
2022/11/11 10:36:24;;;;;;;9.52;7.50;;;;;;;10.67;84.82;103000.50;5042927;28;20091;-48
2022/11/11 10:38:57;;;;;;;;;;;;;;;10.79;86.74;102999.16;5053350;28;20473;-48
2022/11/11 10:41:32;;;;;;;10.98;7.97;;;;;;;10.92;83.82;103004.78;5053980;28;19951;-48
2022/11/11 10:43:58;;;;;;;9.18;7.32;;;;;;;11.04;84.14;102996.28;5049558;28;20033;-49
2022/11/11 10:46:37;;;;;;;8.20;7.10;;;;;;;11.15;83.53;103000.25;5054954;28;20044;-50
2022/11/11 10:49:13;;;;;;;11.60;7.40;;;;;;;11.32;83.26;103004.81;5046998;28;20033;-49
2022/11/11 10:51:46;;;;;;;8.93;6.40;;;;;;;11.41;82.03;103010.59;5039691;28;20021;-46
2022/11/11 10:54:20;;;;;;;6.60;5.90;;;;;;;11.48;80.85;103000.53;5046011;28;20029;-47
2022/11/11 10:56:55;;;;;;;9.30;6.70;;;;;;;11.57;80.69;103002.75;5052901;28;20025;-48
2022/11/11 10:59:33;;;;;;;9.68;6.47;;;;;;;11.74;81.00;102988.66;5048461;28;20359;-48
2022/11/11 11:02:13;;;;;;;8.57;6.05;;;;;;;11.81;79.82;102994.56;5051471;28;20091;-47
2022/11/11 11:04:57;;;;;;;6.88;5.50;;;;;;;11.86;78.98;103000.53;5053967;28;20417;-48
2022/11/11 11:07:33;;;;;;;6.13;5.50;;;;;;;11.98;79.17;102991.97;5041330;28;20478;-47
2022/11/11 11:10:25;;;;;;;6.30;4.97;;;;;;;12.03;79.54;102997.94;5053312;28;20504;-47
2022/11/11 11:12:58;;;;;;;6.05;4.70;;;;;;;12.08;77.05;102994.22;5051173;28;20056;-47
2022/11/11 11:15:25;;;;;;;6.70;5.30;;;;;;;12.11;76.90;102983.41;5053377;28;20506;-47
2022/11/11 11:18:01;;;;;;;6.20;4.70;;;;;;;12.19;76.35;102984.75;5046189;28;20032;-48
2022/11/11 11:20:27;;;;;;;6.00;4.55;;;;;;;12.26;76.45;102980.00;5047158;28;20471;-48
2022/11/11 11:22:58;;;;;;;5.15;4.32;;;;;;;12.34;76.67;102987.56;5050787;28;20032;-47
2022/11/11 11:25:28;;;;;;;4.82;4.03;;;;;;;12.45;76.75;102979.91;5049831;28;20033;-48
2022/11/11 11:28:13;;;;;;;5.85;3.55;;;;;;;12.49;75.71;102978.84;5052527;28;20029;-48
2022/11/11 11:30:38;;;;;;;6.55;3.88;;;;;;;12.46;74.47;102976.31;5049658;28;20055;-47
2022/11/11 11:33:06;;;;;;;5.38;3.55;;;;;;;12.49;74.80;102980.63;5053628;28;20021;-48
2022/11/11 11:35:39;;;;;;;5.72;3.60;;;;;;;12.54;74.63;102983.91;5046786;28;20633;-48
2022/11/11 11:38:06;;;;;;;4.00;3.42;;;;;;;12.55;73.91;102982.97;5048646;28;20071;-49
2022/11/11 11:40:50;;;;;;;3.30;3.00;;;;;;;12.62;74.87;102979.06;5052635;28;20094;-49
2022/11/11 11:43:30;;;;;;;4.53;3.20;;;;;;;12.68;75.97;102975.22;5049146;28;20570;-50
2022/11/11 11:45:58;;;;;;;3.95;3.40;;;;;;;12.73;73.48;102982.03;5052834;28;20025;-48
2022/11/11 11:48:29;;;;;;;5.75;3.00;;;;;;;12.73;74.21;102974.03;5049949;28;20359;-48
2022/11/11 11:51:26;;;;;;;5.60;3.03;;;;;;;12.76;75.30;102975.69;5047478;28;20112;-49
2022/11/11 11:54:20;;;;;;;5.10;2.85;;;;;;;12.77;75.57;102974.72;5040168;28;20136;-48
2022/11/11 11:56:51;;;;;;;5.28;2.63;;;;;;;12.75;72.72;102969.47;5050407;28;20041;-49
2022/11/11 11:59:28;;;;;;;4.50;2.72;;;;;;;12.84;74.33;102977.94;5052794;28;20033;-48
2022/11/11 12:02:20;;;;;;;6.05;2.65;;;;;;;12.89;73.81;102971.44;5052712;28;20390;-46
2022/11/11 12:05:04;;;;;;;4.57;2.58;;;;;;;12.96;73.86;102967.50;5050681;28;20171;-47
2022/11/11 12:07:49;;;;;;;3.33;2.47;;;;;;;12.94;72.74;102965.88;5052438;28;20059;-49
2022/11/11 12:10:26;;;;;;;6.53;3.00;;;;;;;12.95;72.91;102959.59;5049742;28;20029;-48
2022/11/11 12:12:57;;;;;;;3.28;2.22;;;;;;;12.99;72.86;102961.16;5050367;28;20398;-48
2022/11/11 12:15:54;;;;;;;3.97;2.50;;;;;;;13.03;73.83;102959.19;5052182;28;20536;-49
2022/11/11 12:18:40;;;;;;;2.88;2.08;;;;;;;13.06;73.38;102951.88;5044740;28;20478;-50
2022/11/11 12:21:16;;;;;;;3.03;1.90;;;;;;;13.11;73.54;102952.50;5051771;28;20036;-48
2022/11/11 12:23:52;;;;;;;3.15;2.10;;;;;;;13.09;71.04;102957.06;5046493;28;20029;-49
2022/11/11 12:26:30;;;;;;;2.63;1.98;;;;;;;13.02;70.54;102950.31;5049939;28;20120;-48
2022/11/11 12:29:08;;;;;;;3.30;1.90;;;;;;;13.00;71.60;102954.00;5041706;28;20116;-48
2022/11/11 12:32:16;;;;;;;2.05;1.90;;;;;;;13.00;72.27;102946.00;5050196;28;20040;-48
2022/11/11 12:35:16;;;;;;;2.08;1.83;;;;;;;12.99;73.01;102944.28;5042157;28;20503;-49
2022/11/11 12:37:52;;;;;;;4.05;1.98;;;;;;;12.92;70.63;102949.94;5047629;28;20021;-48
2022/11/11 12:40:26;;;;;;;3.10;1.98;;;;;;;12.93;71.40;102940.13;5049961;28;20120;-49